Información del aeropuerto SCRM

Información de pista
Pista 11 Longitud 4238 ft Anchura 125 ft
Elevación 142 ft Umbral ft Rumbo 122
Pista 29 Longitud 4238 ft Anchura 125 ft
Elevación 127 ft Umbral ft Rumbo 302
Frecuencias del aeropuerto
Tipo APP Nombre MARSH APP Frecuencia 118.1 MHZ
Tipo TWR Nombre TWR Frecuencia 118.1 MHZ
Radioayudas del aeropuerto
Tipo VOR-DME Nombre Isla Rey Jorge Frecuencia 113300 KHZ
Tipo NDB Nombre Isla Rey Jorge Frecuencia 360 KHZ
Información meteorológica del aeropuerto y NOTAM
ADDS - METARS form results

(0942 UTC 30 June 2022)
Data provider http://aviationweather.gov/metar/data/
 
METAR text: SCRM 300900Z 02016KT 8000 VCFG SCT006 OVC016 M06/M06 Q0989 NOSIG
Conditions at: SCRM (TENIENTE R MARSH, AQ) observed 0900 UTC 30 June 2022
Temperature: -6.0°C (21°F)
Dewpoint: -6.0°C (21°F) [RH = 100%]
Pressure (altimeter): 29.20 inches Hg (989.0 mb)
Winds: from the NNE (20 degrees) at 18 MPH (16 knots; 8.2 m/s)
Visibility: 5 miles ( 8 km)
Ceiling: 1600 feet AGL
Clouds: scattered clouds at 600 feet AGL
overcast cloud deck at 1600 feet AGL
Weather: VCFG  (fog in vicinity)